createdAt,value
2019-04-10T00:00:04.319Z,19.52
2019-04-10T00:01:06.483Z,19.13
2019-04-10T00:02:03.602Z,19.13
2019-04-10T00:03:04.027Z,19.13
2019-04-10T00:04:03.607Z,19.13
2019-04-10T00:05:03.611Z,19.13
2019-04-10T00:06:04.602Z,19.13
2019-04-10T00:07:12.741Z,19.13
2019-04-10T00:08:04.008Z,19.23
2019-04-10T00:09:03.619Z,19.13
2019-04-10T00:10:03.625Z,19.13
2019-04-10T00:11:04.647Z,19.12
2019-04-10T00:12:03.631Z,19.12
2019-04-10T00:13:04.482Z,19.13
2019-04-10T00:14:03.637Z,19.13
2019-04-10T00:15:03.641Z,19.23
2019-04-10T00:16:03.663Z,19.12
2019-04-10T00:17:04.735Z,19.22
2019-04-10T00:18:03.649Z,19.23
2019-04-10T00:19:04.494Z,19.52
2019-04-10T00:20:04.325Z,19.23
2019-04-10T00:21:03.655Z,19.23
2019-04-10T00:22:04.249Z,19.04
2019-04-10T00:23:03.658Z,19.13
2019-04-10T00:24:03.930Z,19.22
2019-04-10T00:25:04.296Z,19.13
2019-04-10T00:26:03.685Z,19.12
2019-04-10T00:27:04.070Z,19.23
2019-04-10T00:28:03.672Z,19.23
2019-04-10T00:29:03.676Z,19.13
2019-04-10T00:30:04.751Z,19.23
2019-04-10T00:31:03.679Z,19.23
2019-04-10T00:32:03.818Z,19.42
2019-04-10T00:33:04.665Z,19.13
2019-04-10T00:34:03.699Z,19.23
2019-04-10T00:35:04.389Z,19.23
2019-04-10T00:36:03.831Z,19.23
2019-04-10T00:37:03.854Z,19.23
2019-04-10T00:38:03.702Z,19.32
2019-04-10T00:39:04.330Z,19.13
2019-04-10T00:40:03.708Z,19.12
2019-04-10T00:41:03.963Z,19.04
2019-04-10T00:42:03.713Z,19.23
2019-04-10T00:43:03.714Z,19.12
2019-04-10T00:44:03.718Z,19.12
2019-04-10T00:45:03.962Z,19.13
2019-04-10T00:46:04.081Z,19.23
2019-04-10T00:47:04.504Z,19.02
2019-04-10T00:48:03.745Z,19.12
2019-04-10T00:49:03.738Z,19.12
2019-04-10T00:50:04.260Z,19.12
2019-04-10T00:51:03.738Z,19.22
2019-04-10T00:52:03.914Z,19.23
2019-04-10T00:53:03.742Z,19.22
2019-04-10T00:54:03.742Z,19.13
2019-04-10T00:55:03.746Z,19.22
2019-04-10T00:56:04.035Z,19.22
2019-04-10T00:57:03.752Z,19.23
2019-04-10T00:58:03.758Z,19.02
2019-04-10T00:59:03.866Z,19.13
2019-04-10T01:00:04.349Z,19.13
2019-04-10T01:01:03.814Z,19.12
2019-04-10T01:02:04.598Z,19.22
2019-04-10T01:03:03.776Z,19.13
2019-04-10T01:04:04.381Z,19.22
2019-04-10T01:05:03.787Z,19.04
2019-04-10T01:06:03.912Z,19.42
2019-04-10T01:07:04.296Z,19.13
2019-04-10T01:08:04.490Z,19.32
2019-04-10T01:09:04.716Z,19.22
2019-04-10T01:10:04.023Z,19.12
2019-04-10T01:11:03.793Z,19.22
2019-04-10T01:12:03.794Z,19.02
2019-04-10T01:13:04.793Z,19.42
2019-04-10T01:14:03.798Z,19.23
2019-04-10T01:15:04.707Z,19.23
2019-04-10T01:16:03.874Z,19.22
2019-04-10T01:17:04.085Z,19.12
2019-04-10T01:18:04.600Z,19.22
2019-04-10T01:19:03.875Z,19.13
2019-04-10T01:20:05.037Z,19.42
2019-04-10T01:21:04.091Z,19.23
2019-04-10T01:22:03.827Z,19.23
2019-04-10T01:23:03.826Z,19.23
2019-04-10T01:24:03.826Z,19.23
2019-04-10T01:25:03.830Z,19.04
2019-04-10T01:26:03.831Z,19.13
2019-04-10T01:27:03.833Z,19.12
2019-04-10T01:28:04.675Z,19.22
2019-04-10T01:29:05.034Z,19.23
2019-04-10T01:30:04.272Z,19.12
2019-04-10T01:31:04.508Z,19.22
2019-04-10T01:32:03.849Z,19.32
2019-04-10T01:33:04.063Z,19.22
2019-04-10T01:34:03.854Z,19.32
2019-04-10T01:35:03.857Z,19.23
2019-04-10T01:36:04.835Z,19.22
2019-04-10T01:37:04.772Z,19.23
2019-04-10T01:38:05.878Z,19.12
2019-04-10T01:39:04.146Z,19.12
2019-04-10T01:40:04.507Z,19.12
2019-04-10T01:41:03.884Z,19.42
2019-04-10T01:42:04.048Z,19.13
2019-04-10T01:43:09.892Z,19.22
2019-04-10T01:44:03.880Z,19.02
2019-04-10T01:45:04.877Z,19.13
2019-04-10T01:46:04.210Z,19.13
2019-04-10T01:47:04.670Z,19.22
2019-04-10T01:48:03.992Z,19.23
2019-04-10T01:49:05.057Z,19.12
2019-04-10T01:50:04.388Z,19.02
2019-04-10T01:51:03.902Z,19.13
2019-04-10T01:52:04.799Z,19.13
2019-04-10T01:53:03.904Z,19.02
2019-04-10T01:54:03.908Z,19.23
2019-04-10T01:55:19.155Z,19.12
2019-04-10T01:56:03.914Z,19.04
2019-04-10T01:57:04.170Z,19.23
2019-04-10T01:58:05.040Z,19.12
2019-04-10T01:59:03.931Z,19.04
2019-04-10T02:00:04.653Z,19.04
2019-04-10T02:01:03.983Z,19.13
2019-04-10T02:02:05.073Z,19.23
2019-04-10T02:03:03.932Z,19.22
2019-04-10T02:04:04.668Z,19.23
2019-04-10T02:05:04.059Z,19.23
2019-04-10T02:06:05.096Z,19.12
2019-04-10T02:07:03.945Z,19.23
2019-04-10T02:08:09.105Z,19.22
2019-04-10T02:09:04.546Z,19.12
2019-04-10T02:10:03.954Z,19.12
2019-04-10T02:11:04.845Z,19.22
2019-04-10T02:12:04.144Z,19.12
2019-04-10T02:13:04.011Z,19.12
2019-04-10T02:14:03.963Z,19.42
2019-04-10T02:15:04.860Z,19.51
2019-04-10T02:16:03.966Z,19.22
2019-04-10T02:17:04.295Z,19.12
2019-04-10T02:18:03.977Z,19.02
2019-04-10T02:19:04.006Z,19.12
2019-04-10T02:20:04.908Z,19.32
2019-04-10T02:21:04.081Z,19.23
2019-04-10T02:22:04.412Z,19.23
2019-04-10T02:23:03.987Z,19.23
2019-04-10T02:24:05.037Z,19.23
2019-04-10T02:25:03.990Z,19.22
2019-04-10T02:26:04.097Z,19.22
2019-04-10T02:27:03.998Z,19.12
2019-04-10T02:28:04.892Z,19.02
2019-04-10T02:29:04.011Z,19.12
2019-04-10T02:30:05.108Z,19.12
2019-04-10T02:31:04.765Z,19.22
2019-04-10T02:32:04.307Z,19.12
2019-04-10T02:33:04.354Z,19.22
2019-04-10T02:34:04.847Z,19.42
2019-04-10T02:35:06.103Z,19.13
2019-04-10T02:36:05.469Z,19.13
2019-04-10T02:37:04.282Z,19.12
2019-04-10T02:38:21.172Z,19.51
2019-04-10T02:39:15.181Z,19.02
2019-04-10T02:40:05.449Z,19.22
2019-04-10T02:41:05.714Z,19.02
2019-04-10T02:42:04.045Z,19.42
2019-04-10T02:43:05.716Z,19.51
2019-04-10T02:44:04.845Z,19.22
2019-04-10T02:45:04.053Z,19.13
2019-04-10T02:46:04.682Z,19.32
2019-04-10T02:47:04.541Z,19.02
2019-04-10T02:48:05.940Z,19.12
2019-04-10T02:49:04.711Z,19.22
2019-04-10T02:50:06.202Z,19.12
2019-04-10T02:51:05.545Z,19.12
2019-04-10T02:52:04.222Z,19.32
2019-04-10T02:53:05.516Z,19.12
2019-04-10T02:54:05.096Z,19.12
2019-04-10T02:55:04.080Z,19.22
2019-04-10T02:56:05.411Z,19.02
2019-04-10T02:57:05.454Z,19.12
2019-04-10T02:58:05.831Z,19.12
2019-04-10T02:59:04.975Z,19.51
2019-04-10T03:00:05.450Z,19.12
2019-04-10T03:01:04.090Z,19.02
2019-04-10T03:02:04.344Z,19.22
2019-04-10T03:03:05.368Z,19.22
2019-04-10T03:04:05.367Z,19.12
2019-04-10T03:05:04.620Z,19.12
2019-04-10T03:06:05.133Z,19.12
2019-04-10T03:07:04.460Z,19.12
2019-04-10T03:08:04.934Z,19.12
2019-04-10T03:09:18.965Z,19.02
2019-04-10T03:10:15.223Z,19.12
2019-04-10T03:11:07.268Z,19.32
2019-04-10T03:12:05.985Z,19.12
2019-04-10T03:13:04.706Z,19.22
2019-04-10T03:14:04.619Z,19.42
2019-04-10T03:15:05.715Z,19.32
2019-04-10T03:16:05.479Z,19.12
2019-04-10T03:17:04.133Z,19.32
2019-04-10T03:18:04.314Z,19.12
2019-04-10T03:19:04.137Z,19.12
2019-04-10T03:20:04.140Z,19.22
2019-04-10T03:21:04.853Z,19.32
2019-04-10T03:22:04.196Z,19.12
2019-04-10T03:23:05.171Z,19.42
2019-04-10T03:24:04.300Z,19.12
2019-04-10T03:25:04.522Z,19.12
2019-04-10T03:26:04.158Z,19.12
2019-04-10T03:27:04.160Z,19.12
2019-04-10T03:28:05.082Z,19.12
2019-04-10T03:29:05.195Z,19.12
2019-04-10T03:30:05.200Z,19.22
2019-04-10T03:31:07.176Z,19.12
2019-04-10T03:32:04.985Z,19.02
2019-04-10T03:33:07.429Z,19.22
2019-04-10T03:34:08.203Z,19.22
2019-04-10T03:35:04.181Z,19.12
2019-04-10T03:36:05.215Z,19.32
2019-04-10T03:37:04.416Z,19.32
2019-04-10T03:38:04.191Z,19.22
2019-04-10T03:39:06.429Z,19.22
2019-04-10T03:40:04.939Z,19.02
2019-04-10T03:41:04.205Z,19.12
2019-04-10T03:42:04.406Z,19.22
2019-04-10T03:43:04.205Z,19.12
2019-04-10T03:44:04.208Z,19.22
2019-04-10T03:45:05.483Z,19.02
2019-04-10T03:46:05.373Z,19.22
2019-04-10T03:47:04.221Z,19.22
2019-04-10T03:48:04.926Z,19.12
2019-04-10T03:49:05.281Z,19.12
2019-04-10T03:50:04.659Z,19.22
2019-04-10T03:51:04.236Z,19.12
2019-04-10T03:52:05.153Z,19.22
2019-04-10T03:53:04.233Z,19.22
2019-04-10T03:54:04.805Z,19.12
2019-04-10T03:55:04.970Z,19.12
2019-04-10T03:56:05.305Z,19.22
2019-04-10T03:57:04.559Z,19.12
2019-04-10T03:58:04.246Z,19.32
2019-04-10T03:59:04.250Z,19.12
2019-04-10T04:00:04.249Z,19.12
2019-04-10T04:01:04.835Z,19.22
2019-04-10T04:02:05.269Z,19.12
2019-04-10T04:03:04.411Z,19.22
2019-04-10T04:04:04.965Z,19.12
2019-04-10T04:05:04.445Z,19.12
2019-04-10T04:06:04.273Z,19.12
2019-04-10T04:07:04.999Z,19.22
2019-04-10T04:08:05.429Z,19.32
2019-04-10T04:09:09.376Z,19.22
2019-04-10T04:10:04.399Z,19.22
2019-04-10T04:11:04.928Z,19.22
2019-04-10T04:12:04.440Z,19.42
2019-04-10T04:13:05.786Z,19.12
2019-04-10T04:14:04.288Z,19.12
2019-04-10T04:15:05.273Z,19.22
2019-04-10T04:16:04.292Z,19.12
2019-04-10T04:17:04.293Z,19.32
2019-04-10T04:18:04.543Z,19.12
2019-04-10T04:19:04.299Z,19.32
2019-04-10T04:20:04.450Z,19.12
2019-04-10T04:21:04.306Z,19.12
2019-04-10T04:22:04.361Z,19.12
2019-04-10T04:23:05.379Z,19.12
2019-04-10T04:24:04.316Z,19.12
2019-04-10T04:25:04.605Z,19.12
2019-04-10T04:26:05.111Z,19.12
2019-04-10T04:27:04.818Z,19.12
2019-04-10T04:28:04.643Z,19.32
2019-04-10T04:29:05.450Z,19.22
2019-04-10T04:30:04.329Z,19.32
2019-04-10T04:31:05.306Z,19.22
2019-04-10T04:32:04.831Z,19.12
2019-04-10T04:33:04.771Z,19.32
2019-04-10T04:34:04.343Z,19.22
2019-04-10T04:35:04.601Z,19.22
2019-04-10T04:36:04.347Z,19.22
2019-04-10T04:37:04.504Z,19.22
2019-04-10T04:38:04.351Z,19.22
2019-04-10T04:39:18.105Z,19.22
2019-04-10T04:40:05.478Z,19.22
2019-04-10T04:41:04.358Z,19.12
2019-04-10T04:42:05.061Z,19.22
2019-04-10T04:43:04.365Z,19.32
2019-04-10T04:44:04.367Z,19.22
2019-04-10T04:45:05.185Z,19.32
2019-04-10T04:46:04.422Z,19.22
2019-04-10T04:47:06.186Z,19.32
2019-04-10T04:48:05.369Z,19.32
2019-04-10T04:49:04.383Z,19.12
2019-04-10T04:50:05.493Z,19.22
2019-04-10T04:51:04.385Z,19.12
2019-04-10T04:52:04.388Z,19.22
2019-04-10T04:53:04.598Z,19.22
2019-04-10T04:54:04.593Z,19.22
2019-04-10T04:55:04.397Z,19.22
2019-04-10T04:56:04.398Z,19.22
2019-04-10T04:57:04.544Z,19.22
2019-04-10T04:58:04.456Z,19.32
2019-04-10T04:59:04.406Z,19.22
2019-04-10T05:00:06.070Z,19.32
2019-04-10T05:01:04.414Z,19.32
2019-04-10T05:02:04.416Z,19.32
2019-04-10T05:03:04.420Z,18.93
2019-04-10T05:04:04.422Z,19.12
2019-04-10T05:05:04.519Z,19.32
2019-04-10T05:06:04.426Z,19.12
2019-04-10T05:07:04.428Z,19.22
2019-04-10T05:08:05.909Z,19.12
2019-04-10T05:09:04.763Z,19.22
2019-04-10T05:10:04.758Z,19.22
2019-04-10T05:11:04.440Z,19.32
2019-04-10T05:12:04.444Z,19.22
2019-04-10T05:13:04.447Z,19.32
2019-04-10T05:14:04.885Z,19.22
2019-04-10T05:15:04.533Z,19.12
2019-04-10T05:16:04.553Z,19.22
2019-04-10T05:17:04.457Z,19.32
2019-04-10T05:18:04.560Z,19.12
2019-04-10T05:19:04.566Z,19.32
2019-04-10T05:20:04.960Z,19.32
2019-04-10T05:21:05.152Z,19.22
2019-04-10T05:22:04.470Z,19.32
2019-04-10T05:23:04.474Z,19.22
2019-04-10T05:24:05.302Z,19.22
2019-04-10T05:25:04.826Z,19.22
2019-04-10T05:26:04.482Z,19.22
2019-04-10T05:27:05.637Z,19.42
2019-04-10T05:28:05.493Z,19.22
2019-04-10T05:29:04.710Z,19.22
2019-04-10T05:30:04.494Z,19.22
2019-04-10T05:31:04.493Z,19.12
2019-04-10T05:32:05.125Z,19.12
2019-04-10T05:33:04.499Z,19.12
2019-04-10T05:34:05.067Z,19.22
2019-04-10T05:35:06.960Z,19.12
2019-04-10T05:36:04.799Z,19.12
2019-04-10T05:37:05.288Z,19.12
2019-04-10T05:38:04.585Z,19.12
2019-04-10T05:39:04.516Z,19.12
2019-04-10T05:40:05.518Z,19.22
2019-04-10T05:41:04.759Z,19.22
2019-04-10T05:42:04.524Z,19.12
2019-04-10T05:43:04.533Z,19.22
2019-04-10T05:44:04.529Z,19.22
2019-04-10T05:45:04.982Z,19.12
2019-04-10T05:46:04.925Z,19.22
2019-04-10T05:47:05.386Z,19.32
2019-04-10T05:48:04.590Z,19.22
2019-04-10T05:49:04.596Z,19.12
2019-04-10T05:50:04.596Z,19.12
2019-04-10T05:51:07.309Z,19.12
2019-04-10T05:52:04.607Z,19.12
2019-04-10T05:53:04.753Z,19.12
2019-04-10T05:54:04.556Z,19.02
2019-04-10T05:55:04.561Z,19.02
2019-04-10T05:56:05.555Z,19.12
2019-04-10T05:57:04.564Z,19.12
2019-04-10T05:58:04.991Z,19.02
2019-04-10T05:59:05.207Z,19.12
2019-04-10T06:00:04.773Z,19.12
2019-04-10T06:01:05.348Z,19.51
2019-04-10T06:02:05.326Z,19.51
2019-04-10T06:03:06.206Z,19.12
2019-04-10T06:04:05.163Z,19.22
2019-04-10T06:05:05.639Z,19.22
2019-04-10T06:06:04.604Z,19.22
2019-04-10T06:07:05.275Z,19.22
2019-04-10T06:08:05.693Z,19.12
2019-04-10T06:09:04.610Z,19.12
2019-04-10T06:10:07.249Z,19.22
2019-04-10T06:11:04.601Z,19.22
2019-04-10T06:12:05.783Z,19.12
2019-04-10T06:13:04.718Z,19.22
2019-04-10T06:14:05.293Z,19.12
2019-04-10T06:15:04.618Z,19.22
2019-04-10T06:16:05.638Z,19.22
2019-04-10T06:17:05.846Z,19.02
2019-04-10T06:18:05.018Z,19.02
2019-04-10T06:19:04.622Z,19.12
2019-04-10T06:20:05.001Z,19.12
2019-04-10T06:21:05.110Z,19.22
2019-04-10T06:22:05.218Z,19.12
2019-04-10T06:23:05.241Z,19.22
2019-04-10T06:24:05.725Z,19.12
2019-04-10T06:25:07.899Z,19.22
2019-04-10T06:26:05.292Z,19.12
2019-04-10T06:27:04.895Z,19.12
2019-04-10T06:28:05.316Z,19.02
2019-04-10T06:29:04.701Z,19.12
2019-04-10T06:30:05.654Z,19.12
2019-04-10T06:31:04.666Z,19.22
2019-04-10T06:32:05.341Z,19.12
2019-04-10T06:33:04.908Z,19.12
2019-04-10T06:34:04.698Z,19.22
2019-04-10T06:35:05.708Z,19.02
2019-04-10T06:36:04.976Z,19.22
2019-04-10T06:37:06.042Z,19.22
2019-04-10T06:38:04.675Z,19.12
2019-04-10T06:39:04.736Z,19.12
2019-04-10T06:40:12.911Z,19.12
2019-04-10T06:41:04.693Z,19.22
2019-04-10T06:42:04.699Z,19.22
2019-04-10T06:43:04.696Z,19.12
2019-04-10T06:44:05.720Z,19.12
2019-04-10T06:45:05.733Z,19.12
2019-04-10T06:46:04.695Z,19.22
2019-04-10T06:47:04.698Z,19.12
2019-04-10T06:48:04.856Z,19.12
2019-04-10T06:49:05.564Z,19.22
2019-04-10T06:50:04.758Z,19.22
2019-04-10T06:51:04.709Z,19.22
2019-04-10T06:52:04.711Z,19.02
2019-04-10T06:53:04.712Z,19.22
2019-04-10T06:54:08.125Z,19.12
2019-04-10T06:55:05.013Z,19.12
2019-04-10T06:56:04.896Z,19.12
2019-04-10T06:57:04.725Z,19.12
2019-04-10T06:58:04.931Z,19.22
2019-04-10T06:59:04.761Z,19.12
2019-04-10T07:00:04.731Z,19.12
2019-04-10T07:01:04.886Z,19.12
2019-04-10T07:02:16.772Z,19.12
2019-04-10T07:03:04.939Z,19.22
2019-04-10T07:04:07.509Z,19.12
2019-04-10T07:05:07.275Z,19.12
2019-04-10T07:06:12.488Z,19.12
2019-04-10T07:07:10.724Z,19.12
2019-04-10T07:08:12.458Z,19.12
2019-04-10T07:09:05.334Z,19.12
2019-04-10T07:10:19.741Z,19.02
2019-04-10T07:11:09.032Z,19.12
2019-04-10T07:12:05.056Z,19.12
2019-04-10T07:13:07.751Z,19.02
2019-04-10T07:14:04.946Z,19.12
2019-04-10T07:15:04.787Z,19.12
2019-04-10T07:16:04.830Z,19.02
2019-04-10T07:17:07.011Z,19.22
2019-04-10T07:18:04.782Z,19.12
2019-04-10T07:19:08.570Z,18.93
2019-04-10T07:20:05.238Z,19.22
2019-04-10T07:21:04.790Z,19.12
2019-04-10T07:22:08.873Z,19.12
2019-04-10T07:23:05.018Z,19.02
2019-04-10T07:24:07.803Z,19.32
2019-04-10T07:25:08.892Z,18.93
2019-04-10T07:26:05.795Z,19.51
2019-04-10T07:27:06.190Z,19.42
2019-04-10T07:28:07.368Z,19.42
2019-04-10T07:29:04.812Z,19.51
2019-04-10T07:30:05.613Z,19.42
2019-04-10T07:31:08.108Z,19.90
2019-04-10T07:32:07.915Z,20.00
2019-04-10T07:33:05.524Z,20.00
2019-04-10T07:34:04.832Z,20.00
2019-04-10T07:35:04.830Z,19.90
2019-04-10T07:36:08.951Z,20.00
2019-04-10T07:37:05.726Z,19.81
2019-04-10T07:38:05.610Z,19.91
2019-04-10T07:39:05.495Z,19.90
2019-04-10T07:40:05.949Z,19.90
2019-04-10T07:41:11.209Z,19.80
2019-04-10T07:42:04.896Z,19.90
2019-04-10T07:43:06.255Z,19.91
2019-04-10T07:44:05.794Z,20.10
2019-04-10T07:45:04.907Z,20.01
2019-04-10T07:46:04.908Z,20.00
2019-04-10T07:47:05.060Z,20.00
2019-04-10T07:48:04.963Z,20.01
2019-04-10T07:49:04.865Z,19.91
2019-04-10T07:50:06.966Z,19.91
2019-04-10T07:51:04.993Z,20.01
2019-04-10T07:52:05.078Z,19.91
2019-04-10T07:53:04.884Z,20.01
2019-04-10T07:54:06.047Z,19.91
2019-04-10T07:55:04.882Z,20.01
2019-04-10T07:56:10.493Z,19.91
2019-04-10T07:57:04.990Z,19.91
2019-04-10T07:58:04.953Z,19.91
2019-04-10T07:59:04.891Z,19.71
2019-04-10T08:00:04.895Z,20.30
2019-04-10T08:01:05.401Z,20.20
2019-04-10T08:02:08.288Z,20.20
2019-04-10T08:03:06.321Z,20.20
2019-04-10T08:04:06.281Z,20.10
2019-04-10T08:05:05.212Z,20.10
2019-04-10T08:06:05.163Z,20.10
2019-04-10T08:07:07.212Z,20.10
2019-04-10T08:08:05.367Z,20.20
2019-04-10T08:09:05.223Z,20.10
2019-04-10T08:10:05.616Z,20.20
2019-04-10T08:11:05.077Z,20.10
2019-04-10T08:12:05.170Z,20.30
2019-04-10T08:13:05.033Z,20.30
2019-04-10T08:14:07.688Z,20.20
2019-04-10T08:15:05.015Z,20.30
2019-04-10T08:16:06.225Z,20.30
2019-04-10T08:17:05.905Z,20.39
2019-04-10T08:18:05.102Z,20.20
2019-04-10T08:19:05.063Z,20.49
2019-04-10T08:20:05.843Z,20.30
2019-04-10T08:21:05.061Z,20.20
2019-04-10T08:22:06.075Z,20.39
2019-04-10T08:23:07.397Z,20.39
2019-04-10T08:24:05.209Z,20.40
2019-04-10T08:25:04.971Z,20.59
2019-04-10T08:26:05.710Z,20.30
2019-04-10T08:27:05.401Z,20.39
2019-04-10T08:28:05.027Z,20.50
2019-04-10T08:29:05.738Z,20.31
2019-04-10T08:30:05.367Z,20.21
2019-04-10T08:31:06.476Z,20.31
2019-04-10T08:32:05.593Z,20.21
2019-04-10T08:33:06.088Z,20.31
2019-04-10T08:34:04.995Z,20.31
2019-04-10T08:35:04.995Z,20.31
2019-04-10T08:36:05.363Z,20.11
2019-04-10T08:37:05.013Z,20.40
2019-04-10T08:38:05.498Z,20.31
2019-04-10T08:39:05.111Z,20.31
2019-04-10T08:40:05.450Z,20.31
2019-04-10T08:41:05.239Z,20.40
2019-04-10T08:42:05.069Z,20.60
2019-04-10T08:43:06.269Z,20.50
2019-04-10T08:44:05.154Z,20.40
2019-04-10T08:45:05.076Z,20.50
2019-04-10T08:46:05.338Z,20.60
2019-04-10T08:47:05.037Z,20.79
2019-04-10T08:48:05.772Z,20.89
2019-04-10T08:49:05.697Z,20.89
2019-04-10T08:50:05.559Z,20.50
2019-04-10T08:51:05.105Z,20.70
2019-04-10T08:52:06.115Z,20.89
2019-04-10T08:53:06.072Z,20.79
2019-04-10T08:54:05.055Z,20.89
2019-04-10T08:55:05.977Z,20.50
2019-04-10T08:56:05.061Z,20.60
2019-04-10T08:57:05.357Z,20.70
2019-04-10T08:58:06.134Z,20.79
2019-04-10T08:59:05.537Z,20.89
2019-04-10T09:00:05.075Z,20.79
2019-04-10T09:01:05.160Z,20.40
2019-04-10T09:02:06.089Z,20.70
2019-04-10T09:03:06.679Z,20.79
2019-04-10T09:04:05.698Z,20.99
2019-04-10T09:05:05.754Z,20.60
2019-04-10T09:06:05.645Z,20.70
2019-04-10T09:07:06.821Z,20.89
2019-04-10T09:08:05.614Z,20.70
2019-04-10T09:09:05.462Z,20.70
2019-04-10T09:10:05.950Z,20.89
2019-04-10T09:11:05.162Z,20.79
2019-04-10T09:12:05.282Z,20.50
2019-04-10T09:13:06.260Z,20.70
2019-04-10T09:14:05.238Z,20.60
2019-04-10T09:15:05.551Z,20.89
2019-04-10T09:16:05.123Z,20.70
2019-04-10T09:17:05.127Z,20.70
2019-04-10T09:18:06.121Z,20.50
2019-04-10T09:19:05.587Z,20.89
2019-04-10T09:20:05.135Z,20.89
2019-04-10T09:21:05.255Z,20.89
2019-04-10T09:22:05.948Z,20.60
2019-04-10T09:23:28.912Z,20.79
2019-04-10T09:24:05.302Z,20.70
2019-04-10T09:25:05.152Z,20.89
2019-04-10T09:26:05.841Z,20.89
2019-04-10T09:27:05.159Z,20.89
2019-04-10T09:28:06.350Z,20.99
2019-04-10T09:29:05.162Z,20.99
2019-04-10T09:30:05.314Z,20.99
2019-04-10T09:31:05.229Z,20.99
2019-04-10T09:32:06.394Z,20.99
2019-04-10T09:33:15.704Z,20.99
2019-04-10T09:34:05.466Z,21.09
2019-04-10T09:35:05.183Z,20.99
2019-04-10T09:36:05.184Z,20.79
2019-04-10T09:37:06.025Z,20.79
2019-04-10T09:38:06.247Z,20.99
2019-04-10T09:39:05.325Z,20.89
2019-04-10T09:40:05.625Z,20.99
2019-04-10T09:41:05.685Z,20.89
2019-04-10T09:42:05.207Z,20.99
2019-04-10T09:43:05.254Z,20.89
2019-04-10T09:44:05.211Z,20.99
2019-04-10T09:45:05.217Z,21.09
2019-04-10T09:46:06.286Z,20.99
2019-04-10T09:47:05.587Z,20.99
2019-04-10T09:48:06.436Z,21.09
2019-04-10T09:49:05.539Z,21.09
2019-04-10T09:50:05.707Z,21.09
2019-04-10T09:51:05.532Z,21.18
2019-04-10T09:52:05.285Z,20.99
2019-04-10T09:53:05.587Z,20.99
2019-04-10T09:54:05.633Z,20.99
2019-04-10T09:55:05.245Z,20.99
2019-04-10T09:56:05.325Z,21.00
2019-04-10T09:57:05.250Z,20.99
2019-04-10T09:58:05.304Z,20.89
2019-04-10T09:59:05.398Z,20.99
2019-04-10T10:00:05.385Z,20.89
2019-04-10T10:01:05.665Z,20.99
2019-04-10T10:02:06.993Z,21.09
2019-04-10T10:03:06.220Z,21.28
2019-04-10T10:04:06.924Z,21.18
2019-04-10T10:05:06.282Z,20.89
2019-04-10T10:06:06.898Z,20.99
2019-04-10T10:07:05.632Z,21.09
2019-04-10T10:08:07.411Z,20.99
2019-04-10T10:09:06.281Z,20.99
2019-04-10T10:10:06.464Z,21.09
2019-04-10T10:11:06.130Z,20.89
2019-04-10T10:12:05.296Z,20.89
2019-04-10T10:13:05.705Z,20.99
2019-04-10T10:14:06.151Z,20.80
2019-04-10T10:15:05.307Z,20.79
2019-04-10T10:16:06.399Z,21.00
2019-04-10T10:17:06.432Z,21.09
2019-04-10T10:18:05.512Z,21.18
2019-04-10T10:19:05.748Z,21.18
2019-04-10T10:20:05.739Z,21.18
2019-04-10T10:21:05.326Z,21.18
2019-04-10T10:22:06.149Z,20.99
2019-04-10T10:23:05.501Z,21.28
2019-04-10T10:24:06.484Z,21.18
2019-04-10T10:25:05.354Z,21.18
2019-04-10T10:26:05.808Z,21.09
2019-04-10T10:27:05.544Z,21.19
2019-04-10T10:28:05.349Z,21.28
2019-04-10T10:29:05.353Z,21.09
2019-04-10T10:30:05.354Z,21.09
2019-04-10T10:31:06.206Z,21.29
2019-04-10T10:32:05.652Z,21.09
2019-04-10T10:33:05.673Z,21.29
2019-04-10T10:34:06.053Z,21.09
2019-04-10T10:35:05.471Z,21.19
2019-04-10T10:36:05.440Z,21.09
2019-04-10T10:37:06.326Z,21.09
2019-04-10T10:38:05.532Z,21.19
2019-04-10T10:39:11.252Z,21.19
2019-04-10T10:40:05.436Z,21.09
2019-04-10T10:41:06.639Z,21.09
2019-04-10T10:42:05.553Z,21.48
2019-04-10T10:43:05.455Z,21.39
2019-04-10T10:44:05.399Z,21.19
2019-04-10T10:45:05.783Z,21.00
2019-04-10T10:46:05.406Z,21.28
2019-04-10T10:47:06.243Z,21.19
2019-04-10T10:48:08.338Z,21.18
2019-04-10T10:49:06.261Z,21.19
2019-04-10T10:50:06.638Z,21.18
2019-04-10T10:51:06.605Z,21.19
2019-04-10T10:52:05.425Z,21.19
2019-04-10T10:53:06.147Z,21.18
2019-04-10T10:54:05.711Z,21.29
2019-04-10T10:55:05.451Z,21.19
2019-04-10T10:56:06.346Z,21.19
2019-04-10T10:57:05.442Z,21.28
2019-04-10T10:58:05.810Z,21.09
2019-04-10T10:59:05.447Z,21.09
2019-04-10T11:00:06.184Z,21.19
2019-04-10T11:01:05.563Z,21.19
2019-04-10T11:02:06.397Z,21.09
2019-04-10T11:03:05.763Z,21.19
2019-04-10T11:04:05.465Z,21.19
2019-04-10T11:05:07.073Z,21.09
2019-04-10T11:06:06.635Z,21.29
2019-04-10T11:07:06.803Z,21.39
2019-04-10T11:08:05.502Z,21.29
2019-04-10T11:09:05.830Z,21.19
2019-04-10T11:10:06.954Z,21.19
2019-04-10T11:11:06.259Z,21.19
2019-04-10T11:12:06.698Z,21.19
2019-04-10T11:13:06.555Z,21.29
2019-04-10T11:14:05.925Z,21.19
2019-04-10T11:15:05.910Z,21.19
2019-04-10T11:16:07.374Z,21.09
2019-04-10T11:17:05.508Z,21.09
2019-04-10T11:18:06.430Z,21.29
2019-04-10T11:19:06.703Z,21.09
2019-04-10T11:20:06.006Z,21.29
2019-04-10T11:21:08.886Z,21.09
2019-04-10T11:22:05.522Z,21.48
2019-04-10T11:23:06.259Z,21.39
2019-04-10T11:24:06.923Z,21.39
2019-04-10T11:25:06.129Z,21.09
2019-04-10T11:26:05.591Z,21.29
2019-04-10T11:27:06.402Z,21.09
2019-04-10T11:28:06.010Z,21.39
2019-04-10T11:29:05.598Z,21.19
2019-04-10T11:30:05.552Z,21.39
2019-04-10T11:31:07.116Z,21.39
2019-04-10T11:32:06.763Z,21.48
2019-04-10T11:33:06.274Z,21.19
2019-04-10T11:34:06.308Z,21.09
2019-04-10T11:35:06.731Z,21.19
2019-04-10T11:36:06.413Z,21.09
2019-04-10T11:37:21.587Z,21.29
2019-04-10T11:38:06.124Z,21.29
2019-04-10T11:39:16.135Z,21.09
2019-04-10T11:40:06.879Z,21.29
2019-04-10T11:41:07.213Z,21.19
2019-04-10T11:42:06.736Z,21.39
2019-04-10T11:43:05.596Z,21.09
2019-04-10T11:44:09.105Z,21.50
2019-04-10T11:45:07.660Z,21.58
2019-04-10T11:46:05.601Z,21.39
2019-04-10T11:47:08.660Z,21.29
2019-04-10T11:48:05.983Z,21.58
2019-04-10T11:49:07.437Z,21.68
2019-04-10T11:50:09.225Z,21.58
2019-04-10T11:51:06.672Z,21.78
2019-04-10T11:52:06.408Z,21.58
2019-04-10T11:53:07.029Z,21.68
2019-04-10T11:54:10.982Z,21.48
2019-04-10T11:55:12.730Z,21.59
2019-04-10T11:56:05.846Z,21.39
2019-04-10T11:57:06.835Z,21.58
2019-04-10T11:58:07.839Z,21.48
2019-04-10T11:59:07.633Z,21.68
2019-04-10T12:00:08.815Z,21.40
2019-04-10T12:01:08.459Z,21.58
2019-04-10T12:02:07.359Z,21.58
2019-04-10T12:03:09.774Z,21.40
2019-04-10T12:04:08.666Z,21.11
2019-04-10T12:06:06.460Z,21.11
2019-04-10T12:07:06.172Z,21.20
2019-04-10T12:08:33.683Z,21.40
2019-04-10T12:09:29.140Z,21.30
2019-04-10T12:11:08.863Z,21.29
2019-04-10T12:12:05.890Z,21.40
2019-04-10T12:13:05.995Z,21.50
2019-04-10T12:14:05.747Z,21.20
2019-04-10T12:15:05.700Z,21.11
2019-04-10T12:16:05.863Z,20.91
2019-04-10T12:17:05.707Z,20.91
2019-04-10T12:18:06.552Z,21.01
2019-04-10T12:19:06.705Z,20.81
2019-04-10T12:20:06.856Z,20.62
2019-04-10T12:21:05.719Z,20.62
2019-04-10T12:22:07.381Z,20.62
2019-04-10T12:23:06.628Z,20.52
2019-04-10T12:24:05.881Z,20.51
2019-04-10T12:25:06.857Z,20.51
2019-04-10T12:26:05.761Z,21.09
2019-04-10T12:27:06.492Z,20.52
2019-04-10T12:28:05.741Z,21.11
2019-04-10T12:29:06.673Z,20.90
2019-04-10T12:30:06.802Z,20.80
2019-04-10T12:31:06.253Z,20.61
2019-04-10T12:32:06.246Z,20.61
2019-04-10T12:33:05.960Z,20.80
2019-04-10T12:34:06.666Z,20.90
2019-04-10T12:35:06.837Z,21.09
2019-04-10T12:36:06.586Z,21.00
2019-04-10T12:37:06.942Z,20.90
2019-04-10T12:38:08.081Z,21.00
2019-04-10T12:39:05.787Z,20.90
2019-04-10T12:40:05.933Z,20.90
2019-04-10T12:41:06.831Z,21.00
2019-04-10T12:42:05.960Z,21.09
2019-04-10T12:43:05.796Z,21.19
2019-04-10T12:44:05.848Z,21.00
2019-04-10T12:45:06.288Z,21.09
2019-04-10T12:46:05.955Z,21.19
2019-04-10T12:47:05.859Z,21.19
2019-04-10T12:48:06.230Z,21.28
2019-04-10T12:49:05.815Z,21.29
2019-04-10T12:50:05.880Z,21.28
2019-04-10T12:51:05.832Z,21.09
2019-04-10T12:52:06.017Z,21.28
2019-04-10T12:53:05.927Z,21.29
2019-04-10T12:54:05.837Z,21.68